sensor_id;sensor_type;location;lat;lon;timestamp;P1;durP1;ratioP1;P2;durP2;ratioP2
20653;SDS011;21083;50.898;4.902;2024-02-21T00:01:33;32.33;;;13.85;;
20653;SDS011;21083;50.898;4.902;2024-02-21T00:04:00;34.85;;;12.27;;
20653;SDS011;21083;50.898;4.902;2024-02-21T00:06:28;30.30;;;12.38;;
20653;SDS011;21083;50.898;4.902;2024-02-21T00:08:57;28.90;;;12.63;;
20653;SDS011;21083;50.898;4.902;2024-02-21T00:11:25;43.88;;;12.93;;
20653;SDS011;21083;50.898;4.902;2024-02-21T00:13:54;33.63;;;12.02;;
20653;SDS011;21083;50.898;4.902;2024-02-21T00:16:21;31.45;;;12.27;;
20653;SDS011;21083;50.898;4.902;2024-02-21T00:18:48;33.45;;;12.32;;
20653;SDS011;21083;50.898;4.902;2024-02-21T00:21:16;35.80;;;13.18;;
20653;SDS011;21083;50.898;4.902;2024-02-21T00:23:44;36.15;;;12.43;;
20653;SDS011;21083;50.898;4.902;2024-02-21T00:26:12;33.63;;;13.82;;
20653;SDS011;21083;50.898;4.902;2024-02-21T00:28:39;36.40;;;13.60;;
20653;SDS011;21083;50.898;4.902;2024-02-21T00:31:08;37.47;;;12.82;;
20653;SDS011;21083;50.898;4.902;2024-02-21T00:33:37;40.00;;;12.75;;
20653;SDS011;21083;50.898;4.902;2024-02-21T00:36:04;32.17;;;11.45;;
20653;SDS011;21083;50.898;4.902;2024-02-21T00:38:32;36.97;;;12.70;;
20653;SDS011;21083;50.898;4.902;2024-02-21T00:41:00;37.05;;;12.48;;
20653;SDS011;21083;50.898;4.902;2024-02-21T00:43:27;37.92;;;13.73;;
20653;SDS011;21083;50.898;4.902;2024-02-21T00:45:55;36.72;;;12.43;;
20653;SDS011;21083;50.898;4.902;2024-02-21T00:48:24;29.05;;;11.25;;
20653;SDS011;21083;50.898;4.902;2024-02-21T00:50:51;26.33;;;11.95;;
20653;SDS011;21083;50.898;4.902;2024-02-21T00:53:19;35.10;;;11.77;;
20653;SDS011;21083;50.898;4.902;2024-02-21T00:55:48;35.97;;;11.85;;
20653;SDS011;21083;50.898;4.902;2024-02-21T00:58:16;32.70;;;11.50;;
20653;SDS011;21083;50.898;4.902;2024-02-21T01:00:43;31.17;;;12.40;;
20653;SDS011;21083;50.898;4.902;2024-02-21T01:03:10;32.72;;;11.00;;
20653;SDS011;21083;50.898;4.902;2024-02-21T01:05:39;36.15;;;11.77;;
20653;SDS011;21083;50.898;4.902;2024-02-21T01:08:06;31.30;;;11.55;;
20653;SDS011;21083;50.898;4.902;2024-02-21T01:10:34;25.52;;;10.48;;
20653;SDS011;21083;50.898;4.902;2024-02-21T01:13:01;34.33;;;11.88;;
20653;SDS011;21083;50.898;4.902;2024-02-21T01:15:29;35.83;;;11.20;;
20653;SDS011;21083;50.898;4.902;2024-02-21T01:17:56;31.88;;;11.77;;
20653;SDS011;21083;50.898;4.902;2024-02-21T01:20:23;29.08;;;11.13;;
20653;SDS011;21083;50.898;4.902;2024-02-21T01:22:52;29.25;;;10.55;;
20653;SDS011;21083;50.898;4.902;2024-02-21T01:25:22;32.67;;;10.13;;
20653;SDS011;21083;50.898;4.902;2024-02-21T01:27:50;28.15;;;10.05;;
20653;SDS011;21083;50.898;4.902;2024-02-21T01:30:17;31.13;;;10.13;;
20653;SDS011;21083;50.898;4.902;2024-02-21T01:32:46;26.88;;;10.25;;
20653;SDS011;21083;50.898;4.902;2024-02-21T01:35:15;30.73;;;10.00;;
20653;SDS011;21083;50.898;4.902;2024-02-21T01:37:43;30.90;;;10.02;;
20653;SDS011;21083;50.898;4.902;2024-02-21T01:40:13;27.92;;;9.55;;
20653;SDS011;21083;50.898;4.902;2024-02-21T01:42:42;29.65;;;10.40;;
20653;SDS011;21083;50.898;4.902;2024-02-21T01:45:09;29.92;;;10.52;;
20653;SDS011;21083;50.898;4.902;2024-02-21T01:47:37;31.52;;;10.05;;
20653;SDS011;21083;50.898;4.902;2024-02-21T01:50:05;28.50;;;10.35;;
20653;SDS011;21083;50.898;4.902;2024-02-21T01:52:34;31.00;;;9.60;;
20653;SDS011;21083;50.898;4.902;2024-02-21T01:55:02;32.05;;;10.02;;
20653;SDS011;21083;50.898;4.902;2024-02-21T01:57:32;29.05;;;9.45;;
20653;SDS011;21083;50.898;4.902;2024-02-21T02:00:01;26.67;;;9.30;;
20653;SDS011;21083;50.898;4.902;2024-02-21T02:02:29;30.05;;;10.02;;
20653;SDS011;21083;50.898;4.902;2024-02-21T02:04:56;33.20;;;9.10;;
20653;SDS011;21083;50.898;4.902;2024-02-21T02:07:24;26.33;;;10.23;;
20653;SDS011;21083;50.898;4.902;2024-02-21T02:09:51;22.77;;;9.57;;
20653;SDS011;21083;50.898;4.902;2024-02-21T02:12:18;36.83;;;10.23;;
20653;SDS011;21083;50.898;4.902;2024-02-21T02:14:47;24.55;;;9.82;;
20653;SDS011;21083;50.898;4.902;2024-02-21T02:17:24;29.92;;;10.20;;
20653;SDS011;21083;50.898;4.902;2024-02-21T02:19:53;26.77;;;10.70;;
20653;SDS011;21083;50.898;4.902;2024-02-21T02:22:22;30.70;;;10.88;;
20653;SDS011;21083;50.898;4.902;2024-02-21T02:25:01;25.63;;;9.93;;
20653;SDS011;21083;50.898;4.902;2024-02-21T02:27:30;30.52;;;11.13;;
20653;SDS011;21083;50.898;4.902;2024-02-21T02:29:59;35.78;;;10.25;;
20653;SDS011;21083;50.898;4.902;2024-02-21T02:32:26;32.13;;;10.23;;
20653;SDS011;21083;50.898;4.902;2024-02-21T02:34:54;30.90;;;10.60;;
20653;SDS011;21083;50.898;4.902;2024-02-21T02:37:21;25.05;;;10.35;;
20653;SDS011;21083;50.898;4.902;2024-02-21T02:39:49;27.20;;;9.90;;
20653;SDS011;21083;50.898;4.902;2024-02-21T02:42:18;27.38;;;9.13;;
20653;SDS011;21083;50.898;4.902;2024-02-21T02:44:46;29.85;;;9.68;;
20653;SDS011;21083;50.898;4.902;2024-02-21T02:47:13;28.48;;;10.18;;
20653;SDS011;21083;50.898;4.902;2024-02-21T02:49:40;35.40;;;9.45;;
20653;SDS011;21083;50.898;4.902;2024-02-21T02:52:09;29.75;;;10.23;;
20653;SDS011;21083;50.898;4.902;2024-02-21T02:54:37;28.38;;;10.02;;
20653;SDS011;21083;50.898;4.902;2024-02-21T02:57:19;32.78;;;9.50;;
20653;SDS011;21083;50.898;4.902;2024-02-21T02:59:47;23.70;;;9.55;;
20653;SDS011;21083;50.898;4.902;2024-02-21T03:02:16;22.13;;;7.95;;
20653;SDS011;21083;50.898;4.902;2024-02-21T03:04:44;23.15;;;9.02;;
20653;SDS011;21083;50.898;4.902;2024-02-21T03:07:11;24.73;;;8.43;;
20653;SDS011;21083;50.898;4.902;2024-02-21T03:09:42;22.85;;;8.43;;
20653;SDS011;21083;50.898;4.902;2024-02-21T03:12:09;24.95;;;9.57;;
20653;SDS011;21083;50.898;4.902;2024-02-21T03:14:40;25.70;;;9.77;;
20653;SDS011;21083;50.898;4.902;2024-02-21T03:17:08;28.55;;;9.10;;
20653;SDS011;21083;50.898;4.902;2024-02-21T03:19:35;26.77;;;9.40;;
20653;SDS011;21083;50.898;4.902;2024-02-21T03:22:03;33.40;;;11.18;;
20653;SDS011;21083;50.898;4.902;2024-02-21T03:24:33;29.40;;;9.82;;
20653;SDS011;21083;50.898;4.902;2024-02-21T03:27:01;21.27;;;8.60;;
20653;SDS011;21083;50.898;4.902;2024-02-21T03:29:29;25.35;;;9.25;;
20653;SDS011;21083;50.898;4.902;2024-02-21T03:31:58;26.95;;;7.93;;
20653;SDS011;21083;50.898;4.902;2024-02-21T03:34:27;26.55;;;8.48;;
20653;SDS011;21083;50.898;4.902;2024-02-21T03:36:54;28.50;;;10.15;;
20653;SDS011;21083;50.898;4.902;2024-02-21T03:39:22;31.42;;;9.00;;
20653;SDS011;21083;50.898;4.902;2024-02-21T03:41:49;23.02;;;8.65;;
20653;SDS011;21083;50.898;4.902;2024-02-21T03:44:17;25.50;;;8.50;;
20653;SDS011;21083;50.898;4.902;2024-02-21T03:46:45;21.63;;;8.75;;
20653;SDS011;21083;50.898;4.902;2024-02-21T03:49:14;22.80;;;9.38;;
20653;SDS011;21083;50.898;4.902;2024-02-21T03:51:41;27.17;;;9.48;;
20653;SDS011;21083;50.898;4.902;2024-02-21T03:54:10;24.55;;;9.05;;
20653;SDS011;21083;50.898;4.902;2024-02-21T03:56:38;26.98;;;9.38;;
20653;SDS011;21083;50.898;4.902;2024-02-21T03:59:06;22.17;;;8.48;;
20653;SDS011;21083;50.898;4.902;2024-02-21T04:01:34;28.60;;;8.75;;
20653;SDS011;21083;50.898;4.902;2024-02-21T04:04:01;23.85;;;8.57;;
20653;SDS011;21083;50.898;4.902;2024-02-21T04:06:30;25.02;;;9.60;;
20653;SDS011;21083;50.898;4.902;2024-02-21T04:08:59;27.50;;;9.20;;
20653;SDS011;21083;50.898;4.902;2024-02-21T04:11:26;20.77;;;8.90;;
20653;SDS011;21083;50.898;4.902;2024-02-21T04:13:55;27.98;;;8.95;;
20653;SDS011;21083;50.898;4.902;2024-02-21T04:16:23;31.35;;;10.07;;
20653;SDS011;21083;50.898;4.902;2024-02-21T04:18:51;21.65;;;8.98;;
20653;SDS011;21083;50.898;4.902;2024-02-21T04:21:19;29.73;;;10.07;;
20653;SDS011;21083;50.898;4.902;2024-02-21T04:23:48;23.10;;;8.93;;
20653;SDS011;21083;50.898;4.902;2024-02-21T04:26:15;24.63;;;8.35;;
20653;SDS011;21083;50.898;4.902;2024-02-21T04:28:44;26.70;;;9.27;;
20653;SDS011;21083;50.898;4.902;2024-02-21T04:31:12;30.88;;;10.07;;
20653;SDS011;21083;50.898;4.902;2024-02-21T04:33:39;25.60;;;9.10;;
20653;SDS011;21083;50.898;4.902;2024-02-21T04:36:07;26.33;;;8.90;;
20653;SDS011;21083;50.898;4.902;2024-02-21T04:38:34;28.55;;;9.15;;
20653;SDS011;21083;50.898;4.902;2024-02-21T04:41:03;25.90;;;8.90;;
20653;SDS011;21083;50.898;4.902;2024-02-21T04:43:30;30.25;;;9.23;;
20653;SDS011;21083;50.898;4.902;2024-02-21T04:45:57;26.77;;;10.50;;
20653;SDS011;21083;50.898;4.902;2024-02-21T04:48:25;27.13;;;9.63;;
20653;SDS011;21083;50.898;4.902;2024-02-21T04:50:53;28.38;;;11.07;;
20653;SDS011;21083;50.898;4.902;2024-02-21T04:53:20;26.70;;;10.10;;
20653;SDS011;21083;50.898;4.902;2024-02-21T04:55:47;29.80;;;10.85;;
20653;SDS011;21083;50.898;4.902;2024-02-21T04:58:16;32.83;;;11.00;;
20653;SDS011;21083;50.898;4.902;2024-02-21T05:00:45;23.25;;;9.55;;
20653;SDS011;21083;50.898;4.902;2024-02-21T05:03:12;26.75;;;9.88;;
20653;SDS011;21083;50.898;4.902;2024-02-21T05:05:39;27.75;;;9.60;;
20653;SDS011;21083;50.898;4.902;2024-02-21T05:08:07;27.30;;;9.85;;
20653;SDS011;21083;50.898;4.902;2024-02-21T05:10:36;23.00;;;10.25;;
20653;SDS011;21083;50.898;4.902;2024-02-21T05:13:04;24.45;;;8.88;;
20653;SDS011;21083;50.898;4.902;2024-02-21T05:15:33;26.35;;;9.85;;
20653;SDS011;21083;50.898;4.902;2024-02-21T05:18:00;20.88;;;9.57;;
20653;SDS011;21083;50.898;4.902;2024-02-21T05:20:27;26.40;;;9.10;;
20653;SDS011;21083;50.898;4.902;2024-02-21T05:22:56;30.00;;;9.85;;
20653;SDS011;21083;50.898;4.902;2024-02-21T05:25:24;24.92;;;9.30;;
20653;SDS011;21083;50.898;4.902;2024-02-21T05:27:52;26.48;;;9.05;;
20653;SDS011;21083;50.898;4.902;2024-02-21T05:30:22;29.75;;;10.18;;
20653;SDS011;21083;50.898;4.902;2024-02-21T05:32:50;22.30;;;9.48;;
20653;SDS011;21083;50.898;4.902;2024-02-21T05:35:18;25.23;;;9.63;;
20653;SDS011;21083;50.898;4.902;2024-02-21T05:37:46;24.38;;;9.25;;
20653;SDS011;21083;50.898;4.902;2024-02-21T05:40:20;26.67;;;8.90;;
20653;SDS011;21083;50.898;4.902;2024-02-21T05:42:49;20.55;;;8.18;;
20653;SDS011;21083;50.898;4.902;2024-02-21T05:45:17;24.02;;;8.15;;
20653;SDS011;21083;50.898;4.902;2024-02-21T05:47:44;24.80;;;9.30;;
20653;SDS011;21083;50.898;4.902;2024-02-21T05:50:14;26.15;;;9.15;;
20653;SDS011;21083;50.898;4.902;2024-02-21T05:55:14;21.75;;;8.10;;
20653;SDS011;21083;50.898;4.902;2024-02-21T05:57:42;21.27;;;8.25;;
20653;SDS011;21083;50.898;4.902;2024-02-21T06:00:10;23.02;;;7.65;;
20653;SDS011;21083;50.898;4.902;2024-02-21T06:02:37;26.25;;;8.30;;
20653;SDS011;21083;50.898;4.902;2024-02-21T06:05:07;20.95;;;7.72;;
20653;SDS011;21083;50.898;4.902;2024-02-21T06:07:42;22.17;;;7.72;;
20653;SDS011;21083;50.898;4.902;2024-02-21T06:10:09;22.23;;;7.82;;
20653;SDS011;21083;50.898;4.902;2024-02-21T06:12:36;17.23;;;7.43;;
20653;SDS011;21083;50.898;4.902;2024-02-21T06:15:04;20.73;;;7.97;;
20653;SDS011;21083;50.898;4.902;2024-02-21T06:17:32;21.00;;;7.68;;
20653;SDS011;21083;50.898;4.902;2024-02-21T06:20:00;20.40;;;7.30;;
20653;SDS011;21083;50.898;4.902;2024-02-21T06:22:30;21.55;;;8.02;;
20653;SDS011;21083;50.898;4.902;2024-02-21T06:24:59;18.38;;;7.30;;
20653;SDS011;21083;50.898;4.902;2024-02-21T06:27:27;19.25;;;7.30;;
20653;SDS011;21083;50.898;4.902;2024-02-21T06:29:55;18.88;;;6.95;;
20653;SDS011;21083;50.898;4.902;2024-02-21T06:32:23;16.23;;;7.30;;
20653;SDS011;21083;50.898;4.902;2024-02-21T06:34:50;20.23;;;7.05;;
20653;SDS011;21083;50.898;4.902;2024-02-21T06:37:18;19.35;;;7.15;;
20653;SDS011;21083;50.898;4.902;2024-02-21T06:39:45;15.35;;;6.63;;
20653;SDS011;21083;50.898;4.902;2024-02-21T06:42:16;17.83;;;6.90;;
20653;SDS011;21083;50.898;4.902;2024-02-21T06:44:45;18.80;;;7.88;;
20653;SDS011;21083;50.898;4.902;2024-02-21T06:47:13;22.30;;;6.70;;
20653;SDS011;21083;50.898;4.902;2024-02-21T06:49:41;17.52;;;7.32;;
20653;SDS011;21083;50.898;4.902;2024-02-21T06:52:08;19.73;;;8.13;;
20653;SDS011;21083;50.898;4.902;2024-02-21T06:54:37;22.65;;;7.35;;
20653;SDS011;21083;50.898;4.902;2024-02-21T06:57:05;20.50;;;7.68;;
20653;SDS011;21083;50.898;4.902;2024-02-21T06:59:34;17.58;;;7.50;;
20653;SDS011;21083;50.898;4.902;2024-02-21T07:04:34;23.80;;;8.02;;
20653;SDS011;21083;50.898;4.902;2024-02-21T07:07:04;20.00;;;7.70;;
20653;SDS011;21083;50.898;4.902;2024-02-21T07:09:31;18.08;;;7.50;;
20653;SDS011;21083;50.898;4.902;2024-02-21T07:12:02;17.85;;;7.32;;
20653;SDS011;21083;50.898;4.902;2024-02-21T07:14:35;26.00;;;8.70;;
20653;SDS011;21083;50.898;4.902;2024-02-21T07:17:02;18.13;;;7.72;;
20653;SDS011;21083;50.898;4.902;2024-02-21T07:19:31;19.45;;;7.63;;
20653;SDS011;21083;50.898;4.902;2024-02-21T07:22:06;19.40;;;8.05;;
20653;SDS011;21083;50.898;4.902;2024-02-21T07:24:35;18.83;;;8.10;;
20653;SDS011;21083;50.898;4.902;2024-02-21T07:27:03;24.92;;;9.30;;
20653;SDS011;21083;50.898;4.902;2024-02-21T07:29:30;23.88;;;9.40;;
20653;SDS011;21083;50.898;4.902;2024-02-21T07:31:59;24.55;;;9.63;;
20653;SDS011;21083;50.898;4.902;2024-02-21T07:36:59;20.08;;;9.55;;
20653;SDS011;21083;50.898;4.902;2024-02-21T07:39:28;20.80;;;9.80;;
20653;SDS011;21083;50.898;4.902;2024-02-21T07:41:56;20.73;;;8.90;;
20653;SDS011;21083;50.898;4.902;2024-02-21T07:44:24;25.90;;;10.73;;
20653;SDS011;21083;50.898;4.902;2024-02-21T07:46:54;24.85;;;9.65;;
20653;SDS011;21083;50.898;4.902;2024-02-21T07:49:29;22.63;;;9.63;;
20653;SDS011;21083;50.898;4.902;2024-02-21T07:52:00;27.20;;;10.18;;
20653;SDS011;21083;50.898;4.902;2024-02-21T07:54:28;21.02;;;10.10;;
20653;SDS011;21083;50.898;4.902;2024-02-21T07:57:01;20.15;;;10.55;;
20653;SDS011;21083;50.898;4.902;2024-02-21T07:59:29;26.40;;;10.77;;
20653;SDS011;21083;50.898;4.902;2024-02-21T08:01:58;22.60;;;11.00;;
20653;SDS011;21083;50.898;4.902;2024-02-21T08:04:26;22.95;;;11.20;;
20653;SDS011;21083;50.898;4.902;2024-02-21T08:07:01;23.80;;;11.07;;
20653;SDS011;21083;50.898;4.902;2024-02-21T08:09:31;28.10;;;10.48;;
20653;SDS011;21083;50.898;4.902;2024-02-21T08:11:58;30.85;;;11.48;;
20653;SDS011;21083;50.898;4.902;2024-02-21T08:14:26;25.75;;;10.32;;
20653;SDS011;21083;50.898;4.902;2024-02-21T08:16:53;22.42;;;9.52;;
20653;SDS011;21083;50.898;4.902;2024-02-21T08:19:22;25.25;;;10.07;;
20653;SDS011;21083;50.898;4.902;2024-02-21T08:21:51;22.77;;;8.73;;
20653;SDS011;21083;50.898;4.902;2024-02-21T08:24:18;23.95;;;9.70;;
20653;SDS011;21083;50.898;4.902;2024-02-21T08:26:49;20.33;;;7.82;;
20653;SDS011;21083;50.898;4.902;2024-02-21T08:29:17;20.80;;;8.55;;
20653;SDS011;21083;50.898;4.902;2024-02-21T08:31:45;22.13;;;8.60;;
20653;SDS011;21083;50.898;4.902;2024-02-21T08:34:13;18.83;;;7.85;;
20653;SDS011;21083;50.898;4.902;2024-02-21T08:36:41;32.72;;;15.43;;
20653;SDS011;21083;50.898;4.902;2024-02-21T08:39:10;22.40;;;8.52;;
20653;SDS011;21083;50.898;4.902;2024-02-21T08:41:41;21.75;;;7.68;;
20653;SDS011;21083;50.898;4.902;2024-02-21T08:44:09;20.75;;;7.53;;
20653;SDS011;21083;50.898;4.902;2024-02-21T08:46:36;21.65;;;7.43;;
20653;SDS011;21083;50.898;4.902;2024-02-21T08:49:06;15.70;;;6.95;;
20653;SDS011;21083;50.898;4.902;2024-02-21T08:51:34;19.40;;;6.35;;
20653;SDS011;21083;50.898;4.902;2024-02-21T08:54:07;20.92;;;7.25;;
20653;SDS011;21083;50.898;4.902;2024-02-21T08:56:41;18.10;;;6.38;;
20653;SDS011;21083;50.898;4.902;2024-02-21T08:59:15;17.13;;;7.07;;
20653;SDS011;21083;50.898;4.902;2024-02-21T09:01:48;16.88;;;5.50;;
20653;SDS011;21083;50.898;4.902;2024-02-21T09:04:16;17.65;;;5.03;;
20653;SDS011;21083;50.898;4.902;2024-02-21T09:06:45;18.95;;;5.53;;
20653;SDS011;21083;50.898;4.902;2024-02-21T09:09:13;15.25;;;5.28;;
20653;SDS011;21083;50.898;4.902;2024-02-21T09:11:42;15.73;;;5.80;;
20653;SDS011;21083;50.898;4.902;2024-02-21T09:14:09;23.73;;;5.90;;
20653;SDS011;21083;50.898;4.902;2024-02-21T09:16:37;19.67;;;5.22;;
20653;SDS011;21083;50.898;4.902;2024-02-21T09:19:05;14.85;;;5.25;;
20653;SDS011;21083;50.898;4.902;2024-02-21T09:21:35;13.20;;;5.18;;
20653;SDS011;21083;50.898;4.902;2024-02-21T09:24:05;15.57;;;5.70;;
20653;SDS011;21083;50.898;4.902;2024-02-21T09:26:32;14.27;;;5.18;;
20653;SDS011;21083;50.898;4.902;2024-02-21T09:29:01;15.35;;;5.40;;
20653;SDS011;21083;50.898;4.902;2024-02-21T09:31:29;16.08;;;4.82;;
20653;SDS011;21083;50.898;4.902;2024-02-21T09:33:57;17.52;;;5.13;;
20653;SDS011;21083;50.898;4.902;2024-02-21T09:36:24;13.15;;;5.70;;
20653;SDS011;21083;50.898;4.902;2024-02-21T09:38:52;19.27;;;5.30;;
20653;SDS011;21083;50.898;4.902;2024-02-21T09:41:23;15.77;;;4.82;;
20653;SDS011;21083;50.898;4.902;2024-02-21T09:43:53;15.10;;;4.80;;
20653;SDS011;21083;50.898;4.902;2024-02-21T09:46:28;14.30;;;5.32;;
20653;SDS011;21083;50.898;4.902;2024-02-21T09:49:06;17.60;;;5.10;;
20653;SDS011;21083;50.898;4.902;2024-02-21T09:51:47;17.55;;;5.22;;
20653;SDS011;21083;50.898;4.902;2024-02-21T09:54:17;17.80;;;5.47;;
20653;SDS011;21083;50.898;4.902;2024-02-21T09:56:45;16.23;;;4.90;;
20653;SDS011;21083;50.898;4.902;2024-02-21T09:59:13;16.52;;;5.35;;
20653;SDS011;21083;50.898;4.902;2024-02-21T10:01:43;14.63;;;4.90;;
20653;SDS011;21083;50.898;4.902;2024-02-21T10:04:12;13.18;;;5.07;;
20653;SDS011;21083;50.898;4.902;2024-02-21T10:06:40;18.10;;;5.55;;
20653;SDS011;21083;50.898;4.902;2024-02-21T10:09:08;32.95;;;15.10;;
20653;SDS011;21083;50.898;4.902;2024-02-21T10:11:46;14.57;;;4.95;;
20653;SDS011;21083;50.898;4.902;2024-02-21T10:14:13;16.65;;;4.93;;
20653;SDS011;21083;50.898;4.902;2024-02-21T10:16:42;16.85;;;4.75;;
20653;SDS011;21083;50.898;4.902;2024-02-21T10:19:16;10.82;;;4.13;;
20653;SDS011;21083;50.898;4.902;2024-02-21T10:21:43;13.05;;;4.55;;
20653;SDS011;21083;50.898;4.902;2024-02-21T10:24:12;13.05;;;4.72;;
20653;SDS011;21083;50.898;4.902;2024-02-21T10:26:41;15.65;;;4.25;;
20653;SDS011;21083;50.898;4.902;2024-02-21T10:29:09;18.77;;;5.82;;
20653;SDS011;21083;50.898;4.902;2024-02-21T10:31:36;13.20;;;4.78;;
20653;SDS011;21083;50.898;4.902;2024-02-21T10:34:06;15.38;;;5.13;;
20653;SDS011;21083;50.898;4.902;2024-02-21T10:36:34;13.25;;;4.55;;
20653;SDS011;21083;50.898;4.902;2024-02-21T10:39:02;17.13;;;5.38;;
20653;SDS011;21083;50.898;4.902;2024-02-21T10:41:29;19.15;;;5.18;;
20653;SDS011;21083;50.898;4.902;2024-02-21T10:43:58;13.63;;;4.22;;
20653;SDS011;21083;50.898;4.902;2024-02-21T10:46:28;14.07;;;4.07;;
20653;SDS011;21083;50.898;4.902;2024-02-21T10:49:01;13.50;;;4.13;;
20653;SDS011;21083;50.898;4.902;2024-02-21T10:51:34;13.55;;;3.90;;
20653;SDS011;21083;50.898;4.902;2024-02-21T10:54:11;17.17;;;4.07;;
20653;SDS011;21083;50.898;4.902;2024-02-21T10:56:50;17.63;;;4.35;;
20653;SDS011;21083;50.898;4.902;2024-02-21T10:59:18;12.43;;;3.88;;
20653;SDS011;21083;50.898;4.902;2024-02-21T11:01:47;11.80;;;3.85;;
20653;SDS011;21083;50.898;4.902;2024-02-21T11:04:14;14.98;;;3.75;;
20653;SDS011;21083;50.898;4.902;2024-02-21T11:06:44;14.18;;;4.63;;
20653;SDS011;21083;50.898;4.902;2024-02-21T11:09:13;15.32;;;4.10;;
20653;SDS011;21083;50.898;4.902;2024-02-21T11:11:41;12.55;;;3.80;;
20653;SDS011;21083;50.898;4.902;2024-02-21T11:14:10;10.52;;;3.90;;
20653;SDS011;21083;50.898;4.902;2024-02-21T11:16:39;10.82;;;3.53;;
20653;SDS011;21083;50.898;4.902;2024-02-21T11:19:07;14.90;;;3.75;;
20653;SDS011;21083;50.898;4.902;2024-02-21T11:21:36;13.57;;;4.10;;
20653;SDS011;21083;50.898;4.902;2024-02-21T11:24:05;14.73;;;3.92;;
20653;SDS011;21083;50.898;4.902;2024-02-21T11:26:33;19.80;;;4.75;;
20653;SDS011;21083;50.898;4.902;2024-02-21T11:29:03;12.43;;;3.65;;
20653;SDS011;21083;50.898;4.902;2024-02-21T11:31:40;12.00;;;4.22;;
20653;SDS011;21083;50.898;4.902;2024-02-21T11:34:08;19.98;;;4.45;;
20653;SDS011;21083;50.898;4.902;2024-02-21T11:36:39;15.75;;;3.75;;
20653;SDS011;21083;50.898;4.902;2024-02-21T11:39:19;21.02;;;4.00;;
20653;SDS011;21083;50.898;4.902;2024-02-21T11:41:47;15.68;;;3.60;;
20653;SDS011;21083;50.898;4.902;2024-02-21T11:44:26;16.63;;;3.22;;
20653;SDS011;21083;50.898;4.902;2024-02-21T11:46:53;14.23;;;3.60;;
20653;SDS011;21083;50.898;4.902;2024-02-21T11:49:21;14.27;;;3.28;;
20653;SDS011;21083;50.898;4.902;2024-02-21T11:51:48;13.55;;;3.35;;
20653;SDS011;21083;50.898;4.902;2024-02-21T11:54:25;11.35;;;3.08;;
20653;SDS011;21083;50.898;4.902;2024-02-21T11:56:54;9.25;;;2.85;;
20653;SDS011;21083;50.898;4.902;2024-02-21T11:59:21;11.18;;;3.22;;
20653;SDS011;21083;50.898;4.902;2024-02-21T12:01:49;8.93;;;3.05;;
20653;SDS011;21083;50.898;4.902;2024-02-21T12:04:17;11.25;;;3.67;;
20653;SDS011;21083;50.898;4.902;2024-02-21T12:06:45;10.10;;;2.70;;
20653;SDS011;21083;50.898;4.902;2024-02-21T12:09:13;13.63;;;3.33;;
20653;SDS011;21083;50.898;4.902;2024-02-21T12:11:43;11.63;;;3.08;;
20653;SDS011;21083;50.898;4.902;2024-02-21T12:14:15;10.88;;;3.15;;
20653;SDS011;21083;50.898;4.902;2024-02-21T12:16:44;15.05;;;3.33;;
20653;SDS011;21083;50.898;4.902;2024-02-21T12:19:13;11.30;;;3.35;;
20653;SDS011;21083;50.898;4.902;2024-02-21T12:21:42;10.32;;;2.92;;
20653;SDS011;21083;50.898;4.902;2024-02-21T12:24:14;10.02;;;2.88;;
20653;SDS011;21083;50.898;4.902;2024-02-21T12:26:43;10.10;;;2.80;;
20653;SDS011;21083;50.898;4.902;2024-02-21T12:29:10;10.23;;;2.70;;
20653;SDS011;21083;50.898;4.902;2024-02-21T12:31:38;12.38;;;3.15;;
20653;SDS011;21083;50.898;4.902;2024-02-21T12:34:05;12.52;;;2.90;;
20653;SDS011;21083;50.898;4.902;2024-02-21T12:36:35;9.70;;;3.13;;
20653;SDS011;21083;50.898;4.902;2024-02-21T12:39:07;8.93;;;2.70;;
20653;SDS011;21083;50.898;4.902;2024-02-21T12:41:34;11.15;;;3.17;;
20653;SDS011;21083;50.898;4.902;2024-02-21T12:44:05;8.68;;;2.58;;
20653;SDS011;21083;50.898;4.902;2024-02-21T12:46:33;11.68;;;2.85;;
20653;SDS011;21083;50.898;4.902;2024-02-21T12:49:00;12.75;;;3.45;;
20653;SDS011;21083;50.898;4.902;2024-02-21T12:51:28;10.18;;;2.90;;
20653;SDS011;21083;50.898;4.902;2024-02-21T12:53:55;9.25;;;2.92;;
20653;SDS011;21083;50.898;4.902;2024-02-21T12:56:23;11.90;;;3.33;;
20653;SDS011;21083;50.898;4.902;2024-02-21T12:58:52;10.45;;;2.90;;
20653;SDS011;21083;50.898;4.902;2024-02-21T13:01:21;15.93;;;3.28;;
20653;SDS011;21083;50.898;4.902;2024-02-21T13:03:48;15.13;;;3.17;;
20653;SDS011;21083;50.898;4.902;2024-02-21T13:06:15;12.88;;;3.33;;
20653;SDS011;21083;50.898;4.902;2024-02-21T13:08:44;13.20;;;3.67;;
20653;SDS011;21083;50.898;4.902;2024-02-21T13:11:12;18.25;;;3.78;;
20653;SDS011;21083;50.898;4.902;2024-02-21T13:13:39;11.55;;;3.17;;
20653;SDS011;21083;50.898;4.902;2024-02-21T13:16:08;15.55;;;3.80;;
20653;SDS011;21083;50.898;4.902;2024-02-21T13:18:37;13.07;;;3.17;;
20653;SDS011;21083;50.898;4.902;2024-02-21T13:21:05;13.73;;;4.30;;
20653;SDS011;21083;50.898;4.902;2024-02-21T13:23:33;10.05;;;3.30;;
20653;SDS011;21083;50.898;4.902;2024-02-21T13:26:00;10.40;;;3.50;;
20653;SDS011;21083;50.898;4.902;2024-02-21T13:28:28;15.00;;;3.97;;
20653;SDS011;21083;50.898;4.902;2024-02-21T13:30:55;9.30;;;3.55;;
20653;SDS011;21083;50.898;4.902;2024-02-21T13:33:22;10.02;;;3.50;;
20653;SDS011;21083;50.898;4.902;2024-02-21T13:35:51;14.90;;;3.72;;
20653;SDS011;21083;50.898;4.902;2024-02-21T13:38:18;13.30;;;3.97;;
20653;SDS011;21083;50.898;4.902;2024-02-21T13:40:46;11.52;;;3.42;;
20653;SDS011;21083;50.898;4.902;2024-02-21T13:43:13;13.15;;;3.05;;
20653;SDS011;21083;50.898;4.902;2024-02-21T13:45:40;13.63;;;3.35;;
20653;SDS011;21083;50.898;4.902;2024-02-21T13:48:21;11.98;;;3.50;;
20653;SDS011;21083;50.898;4.902;2024-02-21T13:50:49;9.18;;;4.00;;
20653;SDS011;21083;50.898;4.902;2024-02-21T13:53:18;9.35;;;3.25;;
20653;SDS011;21083;50.898;4.902;2024-02-21T13:55:46;12.60;;;3.35;;
20653;SDS011;21083;50.898;4.902;2024-02-21T13:58:13;12.98;;;3.42;;
20653;SDS011;21083;50.898;4.902;2024-02-21T14:00:42;12.77;;;3.45;;
20653;SDS011;21083;50.898;4.902;2024-02-21T14:03:10;13.10;;;3.33;;
20653;SDS011;21083;50.898;4.902;2024-02-21T14:05:37;15.02;;;4.10;;
20653;SDS011;21083;50.898;4.902;2024-02-21T14:08:06;14.38;;;4.07;;
20653;SDS011;21083;50.898;4.902;2024-02-21T14:10:33;13.63;;;3.13;;
20653;SDS011;21083;50.898;4.902;2024-02-21T14:13:02;15.02;;;4.30;;
20653;SDS011;21083;50.898;4.902;2024-02-21T14:15:30;10.55;;;3.40;;
20653;SDS011;21083;50.898;4.902;2024-02-21T14:17:57;11.93;;;3.33;;
20653;SDS011;21083;50.898;4.902;2024-02-21T14:20:25;12.50;;;3.75;;
20653;SDS011;21083;50.898;4.902;2024-02-21T14:22:52;13.73;;;3.80;;
20653;SDS011;21083;50.898;4.902;2024-02-21T14:25:22;13.93;;;4.15;;
20653;SDS011;21083;50.898;4.902;2024-02-21T14:27:49;9.73;;;3.10;;
20653;SDS011;21083;50.898;4.902;2024-02-21T14:30:17;12.93;;;3.45;;
20653;SDS011;21083;50.898;4.902;2024-02-21T14:32:44;14.13;;;3.42;;
20653;SDS011;21083;50.898;4.902;2024-02-21T14:35:12;14.38;;;3.35;;
20653;SDS011;21083;50.898;4.902;2024-02-21T14:37:41;9.88;;;3.25;;
20653;SDS011;21083;50.898;4.902;2024-02-21T14:40:09;13.80;;;3.53;;
20653;SDS011;21083;50.898;4.902;2024-02-21T14:42:40;13.98;;;3.70;;
20653;SDS011;21083;50.898;4.902;2024-02-21T14:45:08;13.48;;;4.03;;
20653;SDS011;21083;50.898;4.902;2024-02-21T14:47:35;9.88;;;3.25;;